Main page
METAR-TAF:

METAR-TAF

Airports :

Stigler Regional Airport

Stigler, Oklahoma, United States

latitude: 35-17-17N, longitude: 095-05-38W, elevation: 600 ft

Current weather observation

The report was made 21 minutes ago, at 12:55 UTC
Wind 7 mph from the South/Southeast
Temperature 72°F
Humidity 88%
Pressure 29.94 in. Hg
Visibility: 10 miles
Clear sky

METAR: KGZL 231255Z AUTO 16006KT 10SM CLR 22/20 A2994 RMK AO2

Time: 08:16 (13:16 UTC)


TAF: missing

Weather observations and forecasts of more than 4000 airports (METAR and TAF reports).

The available stations are represented by yellow and red dots on the map.

Hover mouse over dot to see the name of the station.

Then click to see weather observations and forecasts.

To change the map : click on the green buttons with a black cross to zoom in, on the green button with a dash to zoom out, or on the green arrows for adjacent maps.


METAR-TAF: